Terminal Aerodrome Forecast
Issued by NWS Houston/Galveston, TX

Home | Current Version | Previous Version | Text Only | Print | Product List | Glossary On
Versions: 1 2 3 4 5 6 7 8 9 10 11 12 13 14 15 16 17 18 19 20 21 22 23 24 25 26 27 28 29 30 31 32 33 34 35 36 37 38 39 40 41 42 43 44 45 46 47 48 49 50
000
FTUS44 KHGX 191318 AAA
TAFGLS
TAF AMD
KGLS 191318Z 1913/2012 10008KT 4SM BR SCT004 OVC018
     FM191500 12010KT 2SM BR OVC004
     FM191900 13014KT 6SM BR SCT007 BKN015
     FM200000 12010KT 2SM BR OVC004
     FM200300 12011KT 1/4SM FG OVC004
     FM200900 13011KT 1SM -SHRA BR BKN010 BKN050=

USA.gov is the U.S. government's official web portal to all federal, state and local government web resources and services.